Time;durP1;ratioP1;P1;durP2;ratioP2;P2;SDS_P1;SDS_P2;PMS_P1;PMS_P2;Temp;Humidity;BMP_temperature;BMP_pressure;BME280_temperature;BME280_humidity;BME280_pressure;Samples;Min_cycle;Max_cycle;Signal;HPM_P1;HPM_P2
2022/03/09 00:00:51;;;;;;;56.67;27.27;;;;;;;-2.40;100.00;94662.72;5050785;28;20305;-75
2022/03/09 00:03:20;;;;;;;61.23;28.97;;;;;;;-2.46;100.00;94648.84;5051107;28;20665;-74
2022/03/09 00:05:48;;;;;;;63.40;28.27;;;;;;;-2.39;100.00;94649.06;5050967;28;20208;-74
2022/03/09 00:08:17;;;;;;;59.20;28.47;;;;;;;-2.28;100.00;94668.44;5050494;28;20631;-75
2022/03/09 00:10:47;;;;;;;61.83;29.83;;;;;;;-2.19;100.00;94662.53;5050221;28;20614;-74
2022/03/09 00:13:18;;;;;;;64.50;29.97;;;;;;;-2.19;100.00;94665.06;5050334;28;20351;-76
2022/03/09 00:15:45;;;;;;;58.30;27.93;;;;;;;-2.20;100.00;94669.34;5050980;28;20571;-74
2022/03/09 00:18:14;;;;;;;65.77;29.90;;;;;;;-2.12;100.00;94671.19;5051190;28;20206;-74
2022/03/09 00:20:41;;;;;;;57.73;26.17;;;;;;;-2.28;100.00;94665.91;5050119;28;20248;-75
2022/03/09 00:23:09;;;;;;;63.40;29.47;;;;;;;-2.43;100.00;94665.56;5050402;28;20217;-75
2022/03/09 00:25:38;;;;;;;60.53;28.43;;;;;;;-2.60;100.00;94659.47;5050559;28;20304;-74
2022/03/09 00:28:07;;;;;;;64.00;30.27;;;;;;;-2.49;100.00;94659.28;5050128;28;20271;-74
2022/03/09 00:30:36;;;;;;;60.97;28.70;;;;;;;-2.36;100.00;94657.22;5047977;28;20194;-74
2022/03/09 00:33:03;;;;;;;60.13;28.30;;;;;;;-2.23;100.00;94651.81;5046873;28;20198;-75
2022/03/09 00:35:31;;;;;;;61.30;29.07;;;;;;;-2.14;100.00;94658.59;5049487;28;20206;-75
2022/03/09 00:38:00;;;;;;;57.93;28.60;;;;;;;-2.06;100.00;94656.16;5049109;28;20660;-75
2022/03/09 00:40:28;;;;;;;67.43;29.47;;;;;;;-2.01;100.00;94660.81;5048688;28;20229;-75
2022/03/09 00:42:58;;;;;;;62.40;29.83;;;;;;;-2.10;100.00;94657.38;5049831;28;20665;-75
2022/03/09 00:45:25;;;;;;;67.60;29.77;;;;;;;-2.05;100.00;94656.97;5049690;28;20746;-75
2022/03/09 00:47:53;;;;;;;62.40;29.73;;;;;;;-2.03;100.00;94655.06;5049851;28;20198;-74
2022/03/09 00:50:22;;;;;;;64.77;29.07;;;;;;;-1.96;100.00;94656.91;5049913;28;20206;-74
2022/03/09 00:52:52;;;;;;;70.67;28.00;;;;;;;-1.97;100.00;94655.31;5050600;28;20224;-75
2022/03/09 00:55:20;;;;;;;61.57;28.77;;;;;;;-2.14;100.00;94647.63;5049938;28;20199;-75
2022/03/09 00:57:48;;;;;;;54.63;26.70;;;;;;;-2.15;100.00;94648.56;5049130;28;20206;-74
2022/03/09 01:00:18;;;;;;;58.47;27.70;;;;;;;-2.08;100.00;94645.31;5050062;28;20228;-75
2022/03/09 01:02:48;;;;;;;62.37;27.93;;;;;;;-2.09;100.00;94640.34;5050521;28;20202;-75
2022/03/09 01:05:17;;;;;;;61.03;28.40;;;;;;;-2.22;100.00;94639.91;5050021;28;20618;-74
2022/03/09 01:07:46;;;;;;;55.50;26.87;;;;;;;-2.27;100.00;94632.69;5050131;28;20206;-75
2022/03/09 01:10:14;;;;;;;51.00;26.67;;;;;;;-2.38;100.00;94625.22;5049996;28;20587;-75
2022/03/09 01:12:42;;;;;;;54.20;26.17;;;;;;;-2.42;100.00;94632.34;5049421;28;20217;-75
2022/03/09 01:15:11;;;;;;;53.17;25.97;;;;;;;-2.50;100.00;94629.69;5049787;28;20198;-75
2022/03/09 01:17:42;;;;;;;51.57;24.97;;;;;;;-2.58;100.00;94628.78;5049107;28;20213;-75
2022/03/09 01:20:12;;;;;;;50.43;25.43;;;;;;;-2.57;100.00;94626.09;5049011;28;20567;-75
2022/03/09 01:22:42;;;;;;;52.50;25.20;;;;;;;-2.42;100.00;94623.91;5048840;28;20589;-75
2022/03/09 01:25:11;;;;;;;46.10;23.80;;;;;;;-2.58;100.00;94629.59;5049993;28;20237;-74
2022/03/09 01:27:39;;;;;;;46.80;23.30;;;;;;;-2.44;100.00;94626.59;5049391;28;20285;-75
2022/03/09 01:30:08;;;;;;;47.13;23.10;;;;;;;-2.53;100.00;94624.06;5049854;28;20730;-75
2022/03/09 01:32:36;;;;;;;46.97;23.33;;;;;;;-2.37;100.00;94631.94;5048965;28;20291;-75
2022/03/09 01:35:07;;;;;;;46.83;23.40;;;;;;;-2.32;100.00;94628.03;5049288;28;20209;-75
2022/03/09 01:37:35;;;;;;;47.73;22.63;;;;;;;-2.38;100.00;94631.13;5046853;28;20208;-75
2022/03/09 01:40:04;;;;;;;45.37;21.93;;;;;;;-2.35;100.00;94633.38;5044761;28;20225;-75
2022/03/09 01:42:31;;;;;;;43.67;22.83;;;;;;;-2.34;100.00;94629.88;5048510;28;20212;-75
2022/03/09 01:45:03;;;;;;;46.97;22.40;;;;;;;-2.30;100.00;94628.66;5049507;28;20213;-75
2022/03/09 01:47:32;;;;;;;49.17;22.63;;;;;;;-2.46;100.00;94625.94;5049537;28;20260;-75
2022/03/09 01:50:01;;;;;;;48.90;22.70;;;;;;;-2.37;100.00;94631.94;5049246;28;20664;-76
2022/03/09 01:52:31;;;;;;;40.97;21.37;;;;;;;-2.45;100.00;94637.69;5049249;28;20252;-75
2022/03/09 01:54:59;;;;;;;50.63;22.83;;;;;;;-2.40;100.00;94638.09;5048278;28;20259;-75
2022/03/09 01:57:26;;;;;;;47.17;22.13;;;;;;;-2.47;99.93;94628.59;5048952;28;20198;-75
2022/03/09 01:59:54;;;;;;;42.13;21.57;;;;;;;-2.35;99.65;94635.13;5049185;28;20209;-75
2022/03/09 02:02:23;;;;;;;49.20;23.13;;;;;;;-2.43;100.00;94640.94;5048315;28;20209;-75
2022/03/09 02:04:51;;;;;;;46.17;21.67;;;;;;;-2.55;100.00;94636.94;5049327;28;20676;-75
2022/03/09 02:09:41;;;;;;;45.43;21.97;;;;;;;-2.43;99.96;94635.03;5048905;28;20657;-74
2022/03/09 02:10:10;;;;;;;41.37;21.63;;;;;;;-2.44;100.00;94641.84;5048294;28;20206;-76
2022/03/09 02:12:37;;;;;;;45.43;21.33;;;;;;;-2.52;100.00;94635.88;5048224;28;20212;-76
2022/03/09 02:15:09;;;;;;;45.17;21.37;;;;;;;-2.61;100.00;94622.25;5048107;28;20602;-75
2022/03/09 02:17:38;;;;;;;42.13;22.23;;;;;;;-2.57;100.00;94627.84;5047989;28;20297;-75
2022/03/09 02:20:07;;;;;;;43.47;22.50;;;;;;;-2.50;100.00;94636.50;5048197;28;20205;-74
2022/03/09 02:22:38;;;;;;;44.63;22.00;;;;;;;-2.47;100.00;94626.06;5047793;28;20267;-74
2022/03/09 02:25:09;;;;;;;45.97;22.77;;;;;;;-2.45;99.96;94632.59;5049013;28;20204;-75
2022/03/09 02:27:37;;;;;;;43.60;21.87;;;;;;;-2.50;100.00;94632.22;5048282;28;20201;-75
2022/03/09 02:30:07;;;;;;;46.13;23.63;;;;;;;-2.42;100.00;94632.34;5048692;28;20202;-75
2022/03/09 02:32:41;;;;;;;45.37;22.83;;;;;;;-2.44;100.00;94634.22;5048356;28;20206;-74
2022/03/09 02:35:11;;;;;;;49.23;24.27;;;;;;;-2.39;99.88;94634.59;5049041;28;20578;-75
2022/03/09 02:37:41;;;;;;;48.63;23.37;;;;;;;-2.41;100.00;94633.13;5048394;28;20206;-74
2022/03/09 02:40:12;;;;;;;45.30;22.57;;;;;;;-2.41;99.74;94626.31;5048598;28;20536;-75
2022/03/09 02:42:41;;;;;;;49.53;23.07;;;;;;;-2.30;99.89;94633.75;5048317;28;20240;-75
2022/03/09 02:45:11;;;;;;;50.57;22.80;;;;;;;-2.24;99.15;94629.84;5048751;28;20285;-74
2022/03/09 02:47:41;;;;;;;49.90;23.63;;;;;;;-2.23;99.37;94638.28;5048513;28;20206;-75
2022/03/09 02:50:11;;;;;;;44.90;21.80;;;;;;;-2.46;99.19;94625.94;5047937;28;20201;-75
2022/03/09 02:52:44;;;;;;;42.10;21.33;;;;;;;-2.59;99.13;94627.16;5049877;28;20206;-75
2022/03/09 02:55:13;;;;;;;45.30;22.60;;;;;;;-2.66;100.00;94633.78;5051687;28;20204;-74
2022/03/09 02:57:42;;;;;;;46.87;22.63;;;;;;;-2.63;100.00;94636.84;5052532;28;20293;-75
2022/03/09 03:00:11;;;;;;;47.90;24.13;;;;;;;-2.54;100.00;94627.56;5051990;28;20642;-74
2022/03/09 03:02:40;;;;;;;50.33;23.97;;;;;;;-2.43;100.00;94638.38;5052868;28;20673;-75
2022/03/09 03:05:11;;;;;;;52.00;25.67;;;;;;;-2.34;99.67;94634.19;5046232;28;20237;-74
2022/03/09 03:07:40;;;;;;;49.60;24.33;;;;;;;-2.24;98.95;94645.13;5052944;28;20297;-75
2022/03/09 03:10:08;;;;;;;52.10;24.73;;;;;;;-2.28;99.27;94636.97;5051893;28;20206;-75
2022/03/09 03:12:36;;;;;;;49.70;24.53;;;;;;;-2.29;99.05;94634.56;5051759;28;20260;-75
2022/03/09 03:15:05;;;;;;;44.20;22.27;;;;;;;-2.36;98.94;94643.69;5052156;28;20234;-75
2022/03/09 03:17:36;;;;;;;47.67;22.70;;;;;;;-2.38;99.71;94640.50;5052274;28;20202;-74
2022/03/09 03:20:04;;;;;;;50.60;24.10;;;;;;;-2.53;100.00;94642.69;5051891;28;20584;-74
2022/03/09 03:22:34;;;;;;;46.30;22.83;;;;;;;-2.52;100.00;94643.50;5046609;28;20222;-75
2022/03/09 03:25:06;;;;;;;43.30;22.03;;;;;;;-2.56;100.00;94648.03;5052416;28;20198;-74
2022/03/09 03:27:35;;;;;;;42.30;21.33;;;;;;;-2.56;100.00;94637.06;5051582;28;20279;-74
2022/03/09 03:30:03;;;;;;;47.83;23.30;;;;;;;-2.64;100.00;94629.34;5052076;28;20754;-74
2022/03/09 03:32:31;;;;;;;49.87;24.67;;;;;;;-2.52;100.00;94636.66;5051908;28;20212;-75
2022/03/09 03:35:00;;;;;;;52.87;24.93;;;;;;;-2.51;100.00;94638.25;5051552;28;20198;-75
2022/03/09 03:37:27;;;;;;;47.17;22.47;;;;;;;-2.41;99.93;94644.13;5051626;28;20202;-74
2022/03/09 03:39:55;;;;;;;42.77;22.30;;;;;;;-2.35;99.82;94645.31;5051333;28;20212;-74
2022/03/09 03:42:25;;;;;;;39.97;20.63;;;;;;;-2.40;99.27;94650.81;5050927;28;20712;-75
2022/03/09 03:44:55;;;;;;;43.63;22.17;;;;;;;-2.53;100.00;94654.59;5051586;28;20235;-76
2022/03/09 03:47:23;;;;;;;47.33;22.97;;;;;;;-2.61;100.00;94655.28;5051677;28;20279;-76
2022/03/09 03:49:52;;;;;;;47.23;23.33;;;;;;;-2.74;100.00;94649.69;5051533;28;20744;-74
2022/03/09 03:52:20;;;;;;;48.10;23.47;;;;;;;-2.95;100.00;94631.31;5051700;28;20216;-74
2022/03/09 03:54:49;;;;;;;45.23;22.87;;;;;;;-2.84;100.00;94646.38;5051354;28;20240;-75
2022/03/09 03:57:18;;;;;;;50.77;24.07;;;;;;;-2.86;100.00;94641.44;5051154;28;20202;-75
2022/03/09 03:59:46;;;;;;;46.90;22.53;;;;;;;-2.79;100.00;94643.41;5050872;28;20210;-76
2022/03/09 04:02:14;;;;;;;48.73;23.53;;;;;;;-2.77;100.00;94644.88;5051430;28;20233;-77
2022/03/09 04:04:42;;;;;;;48.23;23.73;;;;;;;-2.92;100.00;94639.47;5048090;28;20213;-75
2022/03/09 04:07:10;;;;;;;43.77;22.70;;;;;;;-2.88;100.00;94642.50;5050119;28;20260;-73
2022/03/09 04:09:40;;;;;;;46.87;23.73;;;;;;;-2.69;100.00;94641.69;5051175;28;20293;-71
2022/03/09 04:12:09;;;;;;;46.77;21.97;;;;;;;-2.75;99.17;94635.41;5050237;28;20206;-72
2022/03/09 04:14:37;;;;;;;47.20;22.57;;;;;;;-2.83;100.00;94642.91;5049978;28;20779;-73
2022/03/09 04:17:07;;;;;;;44.17;22.27;;;;;;;-2.94;100.00;94641.31;5050478;28;20660;-72
2022/03/09 04:19:35;;;;;;;43.30;21.47;;;;;;;-2.92;100.00;94636.13;5050703;28;20607;-72
2022/03/09 04:22:03;;;;;;;46.57;23.03;;;;;;;-2.86;100.00;94640.66;5049268;28;20233;-74
2022/03/09 04:24:31;;;;;;;46.87;23.33;;;;;;;-2.79;100.00;94640.88;5050786;28;20212;-74
2022/03/09 04:27:00;;;;;;;53.00;24.70;;;;;;;-2.77;100.00;94639.81;5049638;28;20759;-72
2022/03/09 04:29:28;;;;;;;49.67;22.80;;;;;;;-2.83;100.00;94647.19;5050172;28;20260;-73
2022/03/09 04:31:57;;;;;;;49.33;24.03;;;;;;;-2.80;100.00;94654.56;5049353;28;20202;-73
2022/03/09 04:34:27;;;;;;;50.13;23.07;;;;;;;-2.83;100.00;94647.19;5050053;28;20233;-72
2022/03/09 04:36:55;;;;;;;55.17;25.33;;;;;;;-2.88;100.00;94643.31;5050339;28;20772;-72
2022/03/09 04:39:23;;;;;;;52.23;24.77;;;;;;;-2.86;100.00;94646.50;5050828;28;20201;-72
2022/03/09 04:41:51;;;;;;;52.27;24.13;;;;;;;-2.94;100.00;94637.97;5049945;28;20693;-72
2022/03/09 04:44:19;;;;;;;44.27;22.63;;;;;;;-2.88;100.00;94642.50;5050919;28;20564;-72
2022/03/09 04:46:48;;;;;;;48.63;24.10;;;;;;;-2.84;100.00;94641.31;5050291;28;20642;-73
2022/03/09 04:49:16;;;;;;;56.37;24.90;;;;;;;-2.77;100.00;94642.34;5050153;28;20202;-73
2022/03/09 04:51:46;;;;;;;60.50;26.33;;;;;;;-2.78;100.00;94645.84;5050064;28;20618;-73
2022/03/09 04:54:15;;;;;;;54.70;24.73;;;;;;;-2.73;100.00;94653.03;5049572;28;20268;-71
2022/03/09 04:56:43;;;;;;;57.70;25.90;;;;;;;-2.69;99.90;94651.84;5049726;28;20661;-72
2022/03/09 04:59:12;;;;;;;66.23;27.83;;;;;;;-2.77;100.00;94656.81;5038328;28;20281;-71
2022/03/09 05:01:40;;;;;;;62.73;27.67;;;;;;;-2.68;100.00;94655.97;5049691;28;20265;-72
2022/03/09 05:04:07;;;;;;;58.80;26.40;;;;;;;-2.62;99.64;94658.78;5049664;28;20209;-71
2022/03/09 05:06:35;;;;;;;60.90;28.80;;;;;;;-2.53;99.90;94657.13;5049831;28;20202;-72
2022/03/09 05:09:05;;;;;;;61.67;26.67;;;;;;;-2.63;99.79;94658.91;5049678;28;20201;-70
2022/03/09 05:11:33;;;;;;;51.40;25.10;;;;;;;-2.65;100.00;94669.22;5049820;28;20198;-72
2022/03/09 05:14:01;;;;;;;51.87;23.20;;;;;;;-2.74;100.00;94661.63;5048833;28;20727;-72
2022/03/09 05:16:31;;;;;;;52.43;23.03;;;;;;;-2.73;99.97;94663.22;5049842;28;20237;-72
2022/03/09 05:18:58;;;;;;;58.73;26.27;;;;;;;-2.76;99.73;94666.84;5049402;28;20203;-72
2022/03/09 05:21:25;;;;;;;46.37;22.67;;;;;;;-2.71;100.00;94669.00;5048568;28;20222;-72
2022/03/09 05:23:54;;;;;;;50.57;24.73;;;;;;;-2.66;99.56;94675.25;5049232;28;20656;-72
2022/03/09 05:26:24;;;;;;;45.50;22.80;;;;;;;-2.82;100.00;94675.00;5049940;28;20255;-72
2022/03/09 05:28:53;;;;;;;48.63;23.60;;;;;;;-2.82;100.00;94675.00;5048891;28;20557;-73
2022/03/09 05:31:21;;;;;;;53.77;25.00;;;;;;;-2.68;100.00;94681.41;5049409;28;20285;-73
2022/03/09 05:33:49;;;;;;;47.03;22.60;;;;;;;-2.67;99.57;94688.09;5042586;28;20702;-79
2022/03/09 05:36:18;;;;;;;50.53;23.97;;;;;;;-2.91;99.96;94686.78;5043010;28;20217;-73
2022/03/09 05:38:46;;;;;;;50.10;24.00;;;;;;;-2.95;100.00;94687.22;5049509;28;20206;-73
2022/03/09 05:41:15;;;;;;;50.53;23.80;;;;;;;-2.98;100.00;94675.59;5043054;28;20295;-73
2022/03/09 05:43:45;;;;;;;49.63;24.37;;;;;;;-2.86;100.00;94683.88;5042962;28;20198;-72
2022/03/09 05:46:13;;;;;;;48.57;22.50;;;;;;;-2.89;100.00;94692.53;5048675;28;20208;-72
2022/03/09 05:48:41;;;;;;;51.17;23.53;;;;;;;-2.85;100.00;94688.00;5048979;28;20735;-72
2022/03/09 05:51:08;;;;;;;48.07;22.87;;;;;;;-2.83;100.00;94692.94;5049115;28;20213;-71
2022/03/09 05:53:36;;;;;;;50.90;24.13;;;;;;;-2.81;100.00;94691.88;5049172;28;20212;-74
2022/03/09 05:56:06;;;;;;;48.50;24.27;;;;;;;-2.76;100.00;94696.53;5048169;28;20654;-72
2022/03/09 05:58:35;;;;;;;51.17;24.33;;;;;;;-2.81;99.83;94694.41;5049311;28;20615;-73
2022/03/09 06:01:05;;;;;;;53.10;25.37;;;;;;;-2.82;100.00;94697.88;5048747;28;20206;-73
2022/03/09 06:03:33;;;;;;;53.80;25.30;;;;;;;-2.78;100.00;94698.41;5048922;28;20201;-74
2022/03/09 06:06:01;;;;;;;56.90;26.03;;;;;;;-2.78;100.00;94695.88;5049080;28;20304;-73
2022/03/09 06:08:29;;;;;;;63.97;26.90;;;;;;;-2.86;100.00;94694.03;5040645;28;20293;-72
2022/03/09 06:10:58;;;;;;;57.37;27.20;;;;;;;-2.92;100.00;94700.47;5048177;28;20198;-73
2022/03/09 06:13:27;;;;;;;54.27;25.67;;;;;;;-2.89;100.00;94699.38;5047927;28;20241;-74
2022/03/09 06:15:56;;;;;;;67.97;28.30;;;;;;;-2.88;100.00;94694.16;5048205;28;20202;-72
2022/03/09 06:18:28;;;;;;;54.97;26.33;;;;;;;-2.82;100.00;94697.06;5049470;28;20569;-73
2022/03/09 06:20:56;;;;;;;56.63;26.57;;;;;;;-2.78;100.00;94695.88;5049719;28;20253;-74
2022/03/09 06:23:26;;;;;;;48.93;24.13;;;;;;;-2.85;100.00;94703.25;5042945;28;20222;-76
2022/03/09 06:25:55;;;;;;;51.73;24.27;;;;;;;-2.99;100.00;94714.63;5049490;28;20213;-72
2022/03/09 06:28:24;;;;;;;52.50;25.87;;;;;;;-2.93;100.00;94708.19;5051475;28;20198;-73
2022/03/09 06:30:53;;;;;;;55.17;26.80;;;;;;;-2.81;100.00;94708.88;5053317;28;20201;-73
2022/03/09 06:33:21;;;;;;;56.63;24.57;;;;;;;-2.84;100.00;94709.94;5052662;28;20284;-72
2022/03/09 06:35:52;;;;;;;52.70;23.43;;;;;;;-2.79;100.00;94715.41;5053652;28;20208;-72
2022/03/09 06:38:21;;;;;;;47.10;21.57;;;;;;;-2.93;100.00;94713.28;5053258;28;20642;-72
2022/03/09 06:40:49;;;;;;;52.77;23.97;;;;;;;-2.97;100.00;94720.38;5052888;28;20206;-72
2022/03/09 06:43:18;;;;;;;48.73;23.10;;;;;;;-2.86;100.00;94715.16;5052823;28;20226;-71
2022/03/09 06:45:46;;;;;;;50.13;23.23;;;;;;;-2.74;100.00;94713.25;5051616;28;20210;-72
2022/03/09 06:48:15;;;;;;;52.27;22.77;;;;;;;-2.55;100.00;94708.16;5053013;28;20206;-73
2022/03/09 06:50:43;;;;;;;46.10;22.97;;;;;;;-2.44;100.00;94717.34;5053013;28;20288;-72
2022/03/09 06:53:16;;;;;;;43.33;22.77;;;;;;;-2.38;100.00;94716.81;5052893;28;20213;-71
2022/03/09 06:55:44;;;;;;;45.13;22.53;;;;;;;-2.15;99.10;94728.25;5053027;28;20202;-71
2022/03/09 06:58:13;;;;;;;47.43;22.47;;;;;;;-1.97;98.66;94728.31;5052760;28;20661;-71
2022/03/09 07:00:42;;;;;;;44.87;22.97;;;;;;;-1.80;97.75;94727.59;5053064;28;20293;-72
2022/03/09 07:03:11;;;;;;;45.07;22.33;;;;;;;-1.78;98.07;94723.94;5052637;28;20232;-72
2022/03/09 07:05:40;;;;;;;42.60;22.27;;;;;;;-1.68;96.78;94723.91;5052682;28;20202;-71
2022/03/09 07:08:08;;;;;;;46.27;21.53;;;;;;;-1.45;95.28;94737.06;5052909;28;20206;-72
2022/03/09 07:10:39;;;;;;;51.13;22.87;;;;;;;-1.45;94.10;94737.06;5052859;28;20210;-71
2022/03/09 07:13:08;;;;;;;44.97;20.83;;;;;;;-1.74;94.76;94727.00;5052490;28;20230;-72
2022/03/09 07:15:38;;;;;;;44.53;20.37;;;;;;;-1.90;94.55;94732.69;5052630;28;20206;-72
2022/03/09 07:18:08;;;;;;;42.90;22.17;;;;;;;-1.97;95.23;94729.13;5052542;28;20212;-72
2022/03/09 07:20:36;;;;;;;44.77;22.50;;;;;;;-1.94;95.38;94728.84;5052637;28;20212;-72
2022/03/09 07:23:05;;;;;;;40.23;19.80;;;;;;;-1.92;94.15;94731.25;5046014;28;20228;-72
2022/03/09 07:25:34;;;;;;;45.13;22.57;;;;;;;-1.87;94.08;94729.88;5045981;28;20288;-72
2022/03/09 07:28:08;;;;;;;40.83;21.13;;;;;;;-1.85;94.22;94724.66;5052415;28;20209;-72
2022/03/09 07:30:36;;;;;;;45.37;22.47;;;;;;;-1.79;94.79;94729.97;5052293;28;20204;-72
2022/03/09 07:33:07;;;;;;;42.97;19.97;;;;;;;-1.68;93.74;94725.66;5052247;28;20248;-71
2022/03/09 07:35:36;;;;;;;44.37;22.00;;;;;;;-1.65;95.12;94727.91;5052480;28;20634;-72
2022/03/09 07:38:10;;;;;;;48.67;23.33;;;;;;;-1.47;95.68;94729.53;5051907;28;20241;-71
2022/03/09 07:40:42;;;;;;;44.03;22.40;;;;;;;-1.33;94.91;94721.41;5045544;28;20206;-72
2022/03/09 07:43:13;;;;;;;44.17;22.83;;;;;;;-1.30;94.06;94720.34;5052604;28;20218;-71
2022/03/09 07:45:45;;;;;;;48.20;21.93;;;;;;;-1.22;95.19;94726.31;5051503;28;20208;-72
2022/03/09 07:48:13;;;;;;;46.33;20.47;;;;;;;-1.02;94.42;94723.59;5051519;28;20610;-72
2022/03/09 07:50:41;;;;;;;42.23;21.53;;;;;;;-0.95;93.98;94715.22;5051646;28;20203;-71
2022/03/09 07:53:14;;;;;;;43.23;21.43;;;;;;;-0.75;93.02;94718.44;5052482;28;20256;-71
2022/03/09 07:55:51;;;;;;;44.00;21.53;;;;;;;-0.62;92.71;94724.75;5051709;28;20217;-72
2022/03/09 07:58:23;;;;;;;40.47;20.27;;;;;;;-0.65;91.54;94719.13;5051859;28;20208;-71
2022/03/09 08:00:52;;;;;;;47.90;26.10;;;;;;;-0.47;92.87;94722.47;5052093;28;20198;-71
2022/03/09 08:03:25;;;;;;;39.57;20.83;;;;;;;-0.40;93.05;94705.59;5045497;28;20230;-72
2022/03/09 08:05:54;;;;;;;37.13;20.03;;;;;;;-0.29;92.83;94712.22;5051730;28;20210;-72
2022/03/09 08:08:24;;;;;;;40.57;20.87;;;;;;;0.00;91.72;94716.03;5051496;28;20215;-72
2022/03/09 08:10:52;;;;;;;37.73;20.57;;;;;;;0.07;90.63;94713.66;5052080;28;20630;-72
2022/03/09 08:13:26;;;;;;;44.13;22.10;;;;;;;0.23;90.93;94716.28;5051003;28;20238;-71
2022/03/09 08:15:55;;;;;;;41.20;20.97;;;;;;;0.26;90.43;94712.66;5051716;28;20209;-71
2022/03/09 08:18:23;;;;;;;41.30;20.57;;;;;;;0.16;90.32;94712.75;5051359;28;20196;-71
2022/03/09 08:20:52;;;;;;;43.97;21.67;;;;;;;0.16;89.82;94711.94;5049933;28;20190;-78
2022/03/09 08:23:23;;;;;;;40.53;21.43;;;;;;;-0.01;90.55;94709.34;5048300;28;20305;-85
2022/03/09 08:25:53;;;;;;;56.03;23.27;;;;;;;0.03;91.60;94694.47;5051321;28;20206;-87
2022/03/09 08:28:23;;;;;;;40.40;21.47;;;;;;;0.06;91.20;94704.38;5052013;28;20621;-86
2022/03/09 08:30:54;;;;;;;42.40;21.23;;;;;;;0.15;90.12;94711.16;5052551;28;20192;-87
2022/03/09 08:33:22;;;;;;;39.37;21.23;;;;;;;0.09;89.87;94705.88;5056824;28;20205;-87
2022/03/09 08:35:52;;;;;;;41.80;22.10;;;;;;;0.21;89.97;94700.31;5075893;28;20228;-87
2022/03/09 08:38:22;;;;;;;50.47;23.57;;;;;;;0.47;90.18;94700.25;5050516;28;20206;-86
2022/03/09 08:40:50;;;;;;;40.07;20.40;;;;;;;0.33;89.43;94698.28;5050295;28;20288;-87
2022/03/09 08:43:20;;;;;;;37.43;20.13;;;;;;;0.46;89.52;94691.75;5051824;28;20225;-86
2022/03/09 08:45:50;;;;;;;40.77;22.03;;;;;;;0.77;90.33;94699.69;5053409;28;20203;-88
2022/03/09 08:48:18;;;;;;;37.93;21.23;;;;;;;0.90;87.61;94710.25;5054856;28;20215;-87
2022/03/09 08:50:47;;;;;;;43.97;21.97;;;;;;;0.95;88.62;94713.13;5051168;28;20210;-87
2022/03/09 08:53:16;;;;;;;45.07;22.07;;;;;;;1.03;85.53;94692.69;5047651;28;20191;-86
2022/03/09 08:55:43;;;;;;;45.53;23.13;;;;;;;1.04;86.21;94703.69;5050568;28;20210;-87
2022/03/09 08:58:12;;;;;;;40.17;21.57;;;;;;;0.87;86.23;94697.78;5051231;28;20195;-85
2022/03/09 09:00:41;;;;;;;47.50;23.10;;;;;;;1.00;88.04;94705.78;5050781;28;20552;-87
2022/03/09 09:03:10;;;;;;;42.07;21.80;;;;;;;1.15;86.74;94698.28;5051260;28;20267;-88
2022/03/09 09:05:39;;;;;;;46.03;23.30;;;;;;;1.33;85.09;94708.38;5051019;28;20205;-87
2022/03/09 09:08:07;;;;;;;38.47;20.83;;;;;;;1.43;83.68;94697.00;5051135;28;20205;-87
2022/03/09 09:10:36;;;;;;;37.63;19.73;;;;;;;1.55;81.94;94698.28;5050994;28;20203;-85
2022/03/09 09:13:06;;;;;;;41.03;21.13;;;;;;;1.61;84.19;94695.06;5051213;28;20242;-86
2022/03/09 09:15:35;;;;;;;37.17;20.33;;;;;;;1.79;85.34;94687.16;5045428;28;20597;-86
2022/03/09 09:18:05;;;;;;;37.87;20.30;;;;;;;2.01;85.07;94688.25;5050671;28;20195;-88
2022/03/09 09:20:37;;;;;;;40.30;20.60;;;;;;;2.51;84.44;94704.06;5044404;28;20203;-88
2022/03/09 09:23:09;;;;;;;38.90;20.10;;;;;;;2.55;80.95;94704.53;5050477;28;20237;-87
2022/03/09 09:25:37;;;;;;;43.80;20.37;;;;;;;2.63;80.33;94701.91;5050489;28;20636;-82
2022/03/09 09:28:06;;;;;;;36.33;19.43;;;;;;;2.94;80.28;94707.88;5049810;28;20205;-85
2022/03/09 09:30:40;;;;;;;38.30;19.63;;;;;;;3.25;79.36;94711.19;5048940;28;20220;-84
2022/03/09 09:33:07;;;;;;;41.73;20.70;;;;;;;3.62;78.67;94715.53;5046527;28;20201;-85
2022/03/09 09:35:38;;;;;;;38.70;21.10;;;;;;;3.89;76.63;94712.41;5050536;28;20228;-85
2022/03/09 09:38:11;;;;;;;36.73;20.90;;;;;;;3.95;75.21;94703.97;5047992;28;20279;-85
2022/03/09 09:40:43;;;;;;;36.53;19.67;;;;;;;4.08;74.45;94705.13;5040720;28;20296;-85
2022/03/09 09:43:12;;;;;;;32.73;18.90;;;;;;;4.52;73.24;94701.56;5043758;28;20229;-84
2022/03/09 09:45:41;;;;;;;33.47;18.90;;;;;;;4.38;70.10;94706.72;5050417;28;20732;-86
2022/03/09 09:48:10;;;;;;;30.90;18.20;;;;;;;3.92;71.12;94698.41;5049753;28;20627;-86
2022/03/09 09:50:40;;;;;;;31.40;18.23;;;;;;;3.92;72.42;94706.91;5049860;28;20299;-85
2022/03/09 09:53:10;;;;;;;32.33;17.27;;;;;;;4.24;71.76;94704.97;5049987;28;20559;-85
2022/03/09 09:55:38;;;;;;;29.00;17.57;;;;;;;4.32;71.11;94695.38;5050158;28;20198;-85
2022/03/09 09:58:11;;;;;;;29.23;16.67;;;;;;;4.22;70.33;94700.00;5050272;28;20202;-85
2022/03/09 10:00:41;;;;;;;31.80;17.57;;;;;;;3.90;70.63;94697.75;5050617;28;20202;-85
2022/03/09 10:03:10;;;;;;;31.37;17.17;;;;;;;3.81;72.01;94698.84;5049054;28;20222;-85
2022/03/09 10:05:41;;;;;;;32.63;17.47;;;;;;;3.50;71.72;94701.50;5049471;28;20237;-84
2022/03/09 10:08:17;;;;;;;30.53;16.97;;;;;;;3.71;73.54;94685.41;5050822;28;20240;-84
2022/03/09 10:11:04;;;;;;;28.60;16.60;;;;;;;4.06;71.32;94695.03;5044573;28;20197;-85
2022/03/09 10:13:38;;;;;;;28.50;17.70;;;;;;;4.26;69.85;94690.16;5049173;28;20226;-77
2022/03/09 10:16:12;;;;;;;33.50;17.47;;;;;;;4.36;69.53;94683.75;5049193;28;20247;-76
2022/03/09 10:18:41;;;;;;;26.63;16.30;;;;;;;4.48;69.09;94690.03;5049234;28;20592;-77
2022/03/09 10:21:17;;;;;;;29.13;16.27;;;;;;;4.44;68.24;94682.88;5049206;28;20206;-77
2022/03/09 10:23:58;;;;;;;28.10;15.93;;;;;;;4.71;69.61;94684.75;5043009;28;20271;-76
2022/03/09 10:26:28;;;;;;;25.67;16.37;;;;;;;5.22;69.10;94695.00;5049226;28;20251;-76
2022/03/09 10:29:02;;;;;;;29.53;17.40;;;;;;;5.48;66.86;94690.84;5049092;28;20195;-76
2022/03/09 10:31:38;;;;;;;22.67;13.70;;;;;;;5.55;64.49;94683.97;5049305;28;20203;-78
2022/03/09 10:34:12;;;;;;;26.00;15.37;;;;;;;5.95;63.76;94682.53;5048921;28;20203;-77
2022/03/09 10:36:55;;;;;;;24.00;14.40;;;;;;;6.10;62.42;94672.91;5048990;28;20565;-77
2022/03/09 10:39:24;;;;;;;28.40;15.37;;;;;;;6.65;64.13;94686.66;5048355;28;20672;-77
2022/03/09 10:41:52;;;;;;;26.97;15.90;;;;;;;6.37;62.82;94681.59;5048714;28;20265;-76
2022/03/09 10:44:20;;;;;;;27.17;15.87;;;;;;;6.20;63.93;94668.19;5047275;28;20629;-76
2022/03/09 10:46:50;;;;;;;24.97;14.70;;;;;;;6.09;62.47;94676.44;5045333;28;20663;-77
2022/03/09 10:49:21;;;;;;;23.20;14.00;;;;;;;6.00;60.91;94669.06;5048540;28;20269;-75
2022/03/09 10:51:52;;;;;;;24.70;14.47;;;;;;;5.84;62.15;94671.91;5049180;28;20227;-77
2022/03/09 10:54:24;;;;;;;25.00;14.50;;;;;;;5.80;62.29;94671.47;5048831;28;20202;-75
2022/03/09 10:57:06;;;;;;;25.87;14.73;;;;;;;5.98;62.15;94671.81;5048337;28;20678;-74
2022/03/09 10:59:47;;;;;;;25.60;14.77;;;;;;;6.45;61.02;94673.66;5042116;28;20207;-74
2022/03/09 11:02:21;;;;;;;23.17;13.03;;;;;;;6.63;55.71;94662.81;5049133;28;20203;-74
2022/03/09 11:05:07;;;;;;;23.20;13.27;;;;;;;5.91;54.54;94657.31;5048924;28;20220;-76
2022/03/09 11:07:38;;;;;;;23.70;13.57;;;;;;;6.10;56.24;94657.41;5048347;28;20203;-75
2022/03/09 11:10:05;;;;;;;27.23;15.17;;;;;;;6.39;55.68;94663.31;5048693;28;20288;-75
2022/03/09 11:12:34;;;;;;;23.67;14.03;;;;;;;6.69;54.18;94660.28;5048699;28;20199;-74
2022/03/09 11:15:02;;;;;;;25.60;15.40;;;;;;;5.99;55.52;94644.25;5052267;28;20234;-75
2022/03/09 11:17:30;;;;;;;26.97;16.37;;;;;;;5.99;58.12;94655.38;5052886;28;20585;-74
2022/03/09 11:19:58;;;;;;;23.97;13.53;;;;;;;6.57;53.03;94655.84;5051941;28;20228;-75
2022/03/09 11:22:25;;;;;;;25.30;13.50;;;;;;;6.72;52.79;94653.91;5053108;28;20207;-76
2022/03/09 11:24:56;;;;;;;29.20;15.23;;;;;;;6.75;54.49;94656.88;5052388;28;20231;-76